Time;durP1;ratioP1;P1;durP2;ratioP2;P2;SDS_P1;SDS_P2;PMS_P1;PMS_P2;Temp;Humidity;BMP_temperature;BMP_pressure;BME280_temperature;BME280_humidity;BME280_pressure;Samples;Min_cycle;Max_cycle;Signal;HPM_P1;HPM_P2
2023/12/21 00:00:01;;;;;;;29.60;4.90;;;8.90;99.90;;;;;;6190761;23;20099;-76
2023/12/21 00:02:26;;;;;;;26.15;4.97;;;8.90;99.90;;;;;;6190213;23;20103;-76
2023/12/21 00:04:52;;;;;;;23.70;4.07;;;8.90;99.90;;;;;;6190880;23;20047;-76
2023/12/21 00:07:18;;;;;;;32.08;4.28;;;8.80;99.90;;;;;;6190804;23;20019;-76
2023/12/21 00:09:46;;;;;;;24.95;3.90;;;8.90;99.90;;;;;;6190761;23;20016;-76
2023/12/21 00:12:15;;;;;;;22.90;4.57;;;8.90;99.90;;;;;;6190688;23;20009;-76
2023/12/21 00:14:40;;;;;;;20.00;4.10;;;8.80;99.90;;;;;;6190096;23;20051;-76
2023/12/21 00:17:06;;;;;;;22.63;4.60;;;8.80;99.90;;;;;;6190711;23;20020;-77
2023/12/21 00:19:33;;;;;;;25.25;4.38;;;8.80;99.90;;;;;;6190488;23;20016;-76
2023/12/21 00:22:10;;;;;;;30.83;5.25;;;8.80;99.90;;;;;;6190444;23;20045;-76
2023/12/21 00:24:36;;;;;;;19.00;3.75;;;8.80;99.90;;;;;;6190525;23;20436;-76
2023/12/21 00:27:02;;;;;;;23.90;4.35;;;8.80;99.90;;;;;;6190520;23;20526;-76
2023/12/21 00:29:27;;;;;;;15.60;3.33;;;8.80;99.90;;;;;;6190549;23;20020;-76
2023/12/21 00:31:53;;;;;;;21.00;3.40;;;8.80;99.90;;;;;;6190393;23;20017;-76
2023/12/21 00:34:18;;;;;;;31.63;4.53;;;8.80;99.90;;;;;;6189976;23;20059;-76
2023/12/21 00:36:47;;;;;;;20.25;3.92;;;8.90;99.90;;;;;;6190111;23;20016;-76
2023/12/21 00:39:12;;;;;;;32.58;4.60;;;8.80;99.90;;;;;;6190794;23;20067;-76
2023/12/21 00:41:38;;;;;;;32.25;5.18;;;8.90;99.90;;;;;;6190291;23;20025;-76
2023/12/21 00:44:03;;;;;;;22.85;3.42;;;8.80;99.90;;;;;;6190447;23;20021;-76
2023/12/21 00:46:29;;;;;;;24.10;4.13;;;8.90;99.90;;;;;;6217306;23;20448;-76
2023/12/21 00:48:55;;;;;;;26.70;4.53;;;8.80;99.90;;;;;;6191084;23;20016;-76
2023/12/21 00:51:20;;;;;;;25.88;4.03;;;8.80;99.90;;;;;;6190330;23;20020;-76
2023/12/21 00:53:46;;;;;;;24.58;5.05;;;8.80;99.90;;;;;;6190331;23;20013;-76
2023/12/21 00:56:11;;;;;;;21.85;5.25;;;8.80;99.90;;;;;;6190323;23;20372;-76
2023/12/21 00:58:37;;;;;;;26.35;3.88;;;8.80;99.90;;;;;;6190243;23;20344;-76
2023/12/21 01:01:03;;;;;;;24.73;4.57;;;8.80;99.90;;;;;;6190187;23;20384;-76
2023/12/21 01:03:28;;;;;;;25.88;4.90;;;8.80;99.90;;;;;;6190244;23;20013;-76
2023/12/21 01:05:56;;;;;;;22.27;4.93;;;8.80;99.90;;;;;;6190069;23;20517;-76
2023/12/21 01:08:22;;;;;;;21.13;4.13;;;8.80;99.90;;;;;;6190002;23;20043;-76
2023/12/21 01:10:48;;;;;;;24.77;5.60;;;8.80;99.90;;;;;;6190001;23;20013;-76
2023/12/21 01:13:14;;;;;;;23.45;4.25;;;8.80;99.90;;;;;;6190075;23;20067;-76
2023/12/21 01:15:41;;;;;;;18.73;4.30;;;8.90;99.90;;;;;;6190115;23;20021;-76
2023/12/21 01:18:06;;;;;;;33.30;5.60;;;8.90;99.90;;;;;;6189712;23;20044;-76
2023/12/21 01:20:32;;;;;;;30.00;4.15;;;8.80;99.90;;;;;;6189988;23;20028;-76
2023/12/21 01:22:58;;;;;;;24.48;4.25;;;8.80;99.90;;;;;;6190126;23;20017;-76
2023/12/21 01:25:23;;;;;;;23.42;4.07;;;8.80;99.90;;;;;;6189864;23;20023;-76
2023/12/21 01:27:49;;;;;;;27.80;3.72;;;8.80;99.90;;;;;;6189934;23;20149;-76
2023/12/21 01:30:14;;;;;;;23.17;4.28;;;8.80;99.90;;;;;;6189989;23;20017;-76
2023/12/21 01:32:40;;;;;;;26.25;4.75;;;8.80;99.90;;;;;;6189993;23;20055;-76
2023/12/21 01:35:06;;;;;;;31.70;4.43;;;8.80;99.90;;;;;;6216475;23;20016;-76
2023/12/21 01:37:31;;;;;;;23.05;4.18;;;8.80;99.90;;;;;;6189914;23;20454;-76
2023/12/21 01:39:57;;;;;;;22.23;3.70;;;8.80;99.90;;;;;;6189915;23;20017;-76
2023/12/21 01:42:23;;;;;;;28.73;5.00;;;8.80;99.90;;;;;;6216232;23;20039;-76
2023/12/21 01:44:51;;;;;;;19.13;3.88;;;8.90;99.90;;;;;;6189830;23;20020;-76
2023/12/21 01:47:17;;;;;;;29.75;4.43;;;8.80;99.90;;;;;;6189620;23;20025;-76
2023/12/21 01:49:43;;;;;;;26.08;5.00;;;8.90;99.90;;;;;;6189667;23;20048;-76
2023/12/21 01:52:09;;;;;;;20.35;4.45;;;8.90;99.90;;;;;;6189722;23;20052;-76
2023/12/21 01:54:36;;;;;;;18.45;3.83;;;8.90;99.90;;;;;;6189555;23;20016;-76
2023/12/21 01:57:02;;;;;;;25.08;5.78;;;8.90;99.90;;;;;;6189615;23;20024;-76
2023/12/21 01:59:29;;;;;;;37.60;3.88;;;8.90;99.90;;;;;;6189558;23;20028;-76
2023/12/21 02:01:55;;;;;;;28.63;3.92;;;8.90;99.90;;;;;;6189984;23;20448;-76
2023/12/21 02:04:21;;;;;;;20.45;4.13;;;8.90;99.90;;;;;;6189499;23;20031;-76
2023/12/21 02:06:47;;;;;;;18.77;3.80;;;8.90;99.90;;;;;;6189614;23;20044;-76
2023/12/21 02:09:13;;;;;;;22.40;3.65;;;8.90;99.90;;;;;;6216423;23;20017;-76
2023/12/21 02:11:39;;;;;;;30.52;4.72;;;8.90;99.90;;;;;;6189652;23;20024;-76
2023/12/21 02:14:05;;;;;;;22.48;4.88;;;8.80;99.90;;;;;;6189611;23;20098;-76
2023/12/21 02:16:51;;;;;;;21.88;4.07;;;8.80;99.90;;;;;;6189673;23;20023;-76
2023/12/21 02:19:19;;;;;;;22.20;3.83;;;8.90;99.90;;;;;;6188138;23;20013;-76
2023/12/21 02:21:49;;;;;;;28.05;4.25;;;8.90;99.90;;;;;;6189423;23;20027;-76
2023/12/21 02:24:15;;;;;;;26.33;4.63;;;8.80;99.90;;;;;;6189576;23;20019;-76
2023/12/21 02:26:42;;;;;;;25.67;3.92;;;8.80;99.90;;;;;;6189345;23;20020;-76
2023/12/21 02:29:07;;;;;;;27.25;3.70;;;8.80;99.90;;;;;;6189530;23;20016;-76
2023/12/21 02:31:33;;;;;;;26.50;4.13;;;8.80;99.90;;;;;;6189510;23;20105;-76
2023/12/21 02:33:59;;;;;;;19.20;3.40;;;8.80;99.90;;;;;;6189375;23;20459;-76
2023/12/21 02:36:25;;;;;;;24.98;4.80;;;8.80;99.90;;;;;;6189427;23;20027;-76
2023/12/21 02:38:50;;;;;;;19.40;3.80;;;8.80;99.90;;;;;;6189103;23;20019;-76
2023/12/21 02:41:22;;;;;;;23.02;5.22;;;8.80;99.90;;;;;;6189326;23;20025;-76
2023/12/21 02:43:47;;;;;;;22.23;4.25;;;8.90;99.90;;;;;;6189220;23;20016;-76
2023/12/21 02:46:13;;;;;;;23.33;3.90;;;8.80;99.90;;;;;;6189187;23;20020;-76
2023/12/21 02:48:38;;;;;;;23.52;4.72;;;8.80;99.90;;;;;;6189354;23;20436;-76
2023/12/21 02:51:04;;;;;;;21.05;4.03;;;8.80;99.90;;;;;;6189362;23;20092;-76
2023/12/21 02:53:32;;;;;;;22.15;3.97;;;8.80;99.90;;;;;;6188623;23;20336;-76
2023/12/21 02:55:58;;;;;;;23.02;4.95;;;8.80;99.90;;;;;;6189297;23;20063;-76
2023/12/21 02:58:23;;;;;;;30.17;5.55;;;8.80;99.90;;;;;;6189360;23;20024;-76
2023/12/21 03:00:50;;;;;;;27.92;4.47;;;8.80;99.90;;;;;;6189340;23;20013;-76
2023/12/21 03:03:15;;;;;;;22.20;4.65;;;8.80;99.90;;;;;;6216267;23;20067;-76
2023/12/21 03:05:41;;;;;;;21.13;4.38;;;8.80;99.90;;;;;;6216234;23;20017;-76
2023/12/21 03:08:07;;;;;;;19.65;4.55;;;8.80;99.90;;;;;;6189353;23;20091;-76
2023/12/21 03:10:33;;;;;;;21.23;4.15;;;8.80;99.90;;;;;;6189633;23;20020;-76
2023/12/21 03:12:58;;;;;;;31.83;4.78;;;8.80;99.90;;;;;;6189147;23;20028;-76
2023/12/21 03:15:24;;;;;;;23.38;3.92;;;8.80;99.90;;;;;;6187402;23;20380;-76
2023/12/21 03:17:51;;;;;;;21.98;4.90;;;8.80;99.90;;;;;;6189230;23;20441;-76
2023/12/21 03:20:16;;;;;;;34.97;4.22;;;8.80;99.90;;;;;;6188997;23;20017;-77
2023/12/21 03:22:43;;;;;;;28.85;4.88;;;8.80;99.90;;;;;;6189052;23;20035;-76
2023/12/21 03:25:09;;;;;;;25.23;4.60;;;8.80;99.90;;;;;;6189119;23;20445;-77
2023/12/21 03:27:34;;;;;;;26.38;5.03;;;8.80;99.90;;;;;;6189057;23;20021;-76
2023/12/21 03:30:00;;;;;;;23.67;4.97;;;8.80;99.90;;;;;;6189241;23;20088;-77
2023/12/21 03:32:27;;;;;;;24.95;4.55;;;8.80;99.90;;;;;;6188541;23;20088;-77
2023/12/21 03:34:52;;;;;;;22.15;3.42;;;8.80;99.90;;;;;;6189121;23;20092;-77
2023/12/21 03:37:18;;;;;;;22.70;5.10;;;8.80;99.90;;;;;;6189229;23;20055;-77
2023/12/21 03:39:44;;;;;;;22.58;4.45;;;8.80;99.90;;;;;;6216109;23;20017;-76
2023/12/21 03:42:09;;;;;;;28.88;6.75;;;8.80;99.90;;;;;;6189077;23;20024;-77
2023/12/21 03:44:36;;;;;;;31.02;5.82;;;8.80;99.90;;;;;;6189078;23;20021;-77
2023/12/21 03:47:01;;;;;;;27.00;4.53;;;8.80;99.90;;;;;;6189163;23;20447;-76
2023/12/21 03:49:29;;;;;;;20.92;5.07;;;8.80;99.90;;;;;;6189202;23;20019;-77
2023/12/21 03:51:56;;;;;;;23.50;4.25;;;8.80;99.90;;;;;;6190877;23;20031;-76
2023/12/21 03:54:21;;;;;;;22.85;4.28;;;8.90;99.90;;;;;;6216611;23;20012;-77
2023/12/21 03:56:47;;;;;;;17.25;4.28;;;8.90;99.90;;;;;;6190683;23;20055;-76
2023/12/21 03:59:12;;;;;;;22.55;4.43;;;8.80;99.90;;;;;;6217811;23;20009;-76
2023/12/21 04:01:41;;;;;;;19.13;3.65;;;8.90;99.90;;;;;;6190674;23;20442;-76
2023/12/21 04:06:40;;;;;;;25.65;4.88;;;8.80;99.90;;;;;;6159965;23;20028;-76
2023/12/21 04:09:06;;;;;;;24.40;4.57;;;8.90;99.90;;;;;;6185560;23;20025;-76
2023/12/21 04:11:31;;;;;;;25.23;3.92;;;8.80;99.90;;;;;;6160824;23;20048;-77
2023/12/21 04:13:57;;;;;;;20.80;4.32;;;8.80;99.90;;;;;;6160856;23;20013;-76
2023/12/21 04:16:22;;;;;;;21.17;4.85;;;8.90;99.90;;;;;;6160747;23;20087;-76
2023/12/21 04:18:48;;;;;;;23.38;4.20;;;8.80;99.90;;;;;;6185635;23;20017;-76
2023/12/21 04:21:14;;;;;;;27.10;4.55;;;8.80;99.90;;;;;;6160739;23;20049;-76
2023/12/21 04:23:39;;;;;;;31.40;5.30;;;8.90;99.90;;;;;;6160677;23;20017;-76
2023/12/21 04:26:05;;;;;;;21.77;4.10;;;8.80;99.90;;;;;;6160747;23;20017;-76
2023/12/21 04:28:31;;;;;;;30.77;4.75;;;8.90;99.90;;;;;;6160714;23;20017;-76
2023/12/21 04:30:56;;;;;;;19.00;4.00;;;8.90;99.90;;;;;;6160708;23;20013;-76
2023/12/21 04:33:22;;;;;;;29.98;4.88;;;8.80;99.90;;;;;;6160637;23;20025;-76
2023/12/21 04:35:48;;;;;;;29.60;5.22;;;8.90;99.90;;;;;;6160626;23;20017;-76
2023/12/21 04:38:13;;;;;;;26.92;5.03;;;8.90;99.90;;;;;;6186822;23;20021;-76
2023/12/21 04:40:39;;;;;;;26.95;5.55;;;8.90;99.90;;;;;;6160408;23;20045;-76
2023/12/21 04:43:06;;;;;;;24.23;4.32;;;8.90;99.90;;;;;;6160488;23;20032;-76
2023/12/21 04:45:32;;;;;;;20.77;4.50;;;8.90;99.90;;;;;;6186785;23;20477;-76
2023/12/21 04:48:01;;;;;;;19.88;3.65;;;8.90;99.90;;;;;;6160503;23;20027;-76
2023/12/21 04:50:28;;;;;;;22.67;4.85;;;8.90;99.90;;;;;;6186991;23;20067;-76
2023/12/21 04:52:54;;;;;;;27.52;5.00;;;8.90;99.90;;;;;;6185275;23;20520;-76
2023/12/21 04:55:19;;;;;;;22.10;4.72;;;8.90;99.90;;;;;;6187037;23;20021;-76
2023/12/21 04:57:45;;;;;;;27.08;4.68;;;8.90;99.90;;;;;;6160424;23;20048;-76
2023/12/21 05:00:11;;;;;;;27.42;5.05;;;8.90;99.90;;;;;;6160298;23;20348;-76
2023/12/21 05:02:37;;;;;;;21.95;4.05;;;8.90;99.90;;;;;;6160456;23;20100;-76
2023/12/21 05:05:02;;;;;;;24.35;6.40;;;8.90;99.90;;;;;;6186954;23;20024;-76
2023/12/21 05:07:28;;;;;;;29.30;6.32;;;8.90;99.90;;;;;;6160278;23;20484;-76
2023/12/21 05:09:59;;;;;;;24.45;5.03;;;8.90;99.90;;;;;;6186600;23;20353;-76
2023/12/21 05:12:30;;;;;;;20.52;3.83;;;8.90;99.90;;;;;;6186403;23;20017;-76
2023/12/21 05:14:56;;;;;;;24.40;4.05;;;8.90;99.90;;;;;;6160185;23;20021;-76
2023/12/21 05:17:22;;;;;;;21.67;4.18;;;8.90;99.90;;;;;;6160288;23;20048;-76
2023/12/21 05:19:47;;;;;;;21.80;4.13;;;8.90;99.90;;;;;;6160087;23;20345;-76
2023/12/21 05:22:13;;;;;;;24.27;4.15;;;8.90;99.90;;;;;;6160075;23;20021;-76
2023/12/21 05:24:39;;;;;;;28.50;4.63;;;8.90;99.90;;;;;;6160675;23;20024;-76
2023/12/21 05:27:07;;;;;;;28.38;4.70;;;8.90;99.90;;;;;;6186591;23;20083;-76
2023/12/21 05:29:33;;;;;;;25.23;4.28;;;8.90;99.90;;;;;;6160084;23;20333;-76
2023/12/21 05:31:58;;;;;;;25.40;5.38;;;9.00;99.90;;;;;;6160109;23;20344;-76
2023/12/21 05:34:24;;;;;;;24.08;5.25;;;9.00;99.90;;;;;;6160015;23;20020;-76
2023/12/21 05:36:50;;;;;;;25.27;4.53;;;8.90;99.90;;;;;;6186384;23;20100;-76
2023/12/21 05:39:16;;;;;;;19.50;3.75;;;9.00;99.90;;;;;;6186672;23;20009;-76
2023/12/21 05:41:42;;;;;;;20.05;3.70;;;9.00;99.90;;;;;;6160014;23;20096;-76
2023/12/21 05:44:08;;;;;;;20.90;5.63;;;9.00;99.90;;;;;;6160107;23;20045;-76
2023/12/21 05:46:34;;;;;;;24.77;4.20;;;9.00;99.90;;;;;;6159995;23;20040;-76
2023/12/21 05:48:59;;;;;;;25.60;4.38;;;9.00;99.90;;;;;;6160040;23;20017;-76
2023/12/21 05:51:25;;;;;;;27.20;4.70;;;9.00;99.90;;;;;;6159911;23;20020;-76
2023/12/21 05:53:50;;;;;;;26.33;4.03;;;9.00;99.90;;;;;;6159888;23;20445;-76
2023/12/21 05:56:16;;;;;;;28.55;4.32;;;9.00;99.90;;;;;;6159954;23;20455;-76
2023/12/21 05:58:42;;;;;;;22.75;4.15;;;9.00;99.90;;;;;;6159846;23;20024;-76
2023/12/21 06:01:10;;;;;;;19.77;4.15;;;9.00;99.90;;;;;;6159669;23;20021;-76
2023/12/21 06:03:36;;;;;;;22.17;3.95;;;9.00;99.90;;;;;;6159669;23;20021;-76
2023/12/21 06:06:04;;;;;;;18.75;3.92;;;9.00;99.90;;;;;;6159812;23;20454;-76
2023/12/21 06:08:29;;;;;;;23.38;4.93;;;9.00;99.90;;;;;;6186302;23;20088;-76
2023/12/21 06:10:55;;;;;;;19.38;4.35;;;9.10;99.90;;;;;;6159588;23;20044;-76
2023/12/21 06:13:20;;;;;;;18.00;4.55;;;9.00;99.90;;;;;;6159292;23;20020;-76
2023/12/21 06:15:46;;;;;;;19.70;5.05;;;9.00;99.90;;;;;;6186225;23;20024;-76
2023/12/21 06:18:11;;;;;;;17.73;3.92;;;9.10;99.90;;;;;;6159699;23;20009;-76
2023/12/21 06:20:37;;;;;;;26.70;5.30;;;9.00;99.90;;;;;;6159514;23;20021;-76
2023/12/21 06:23:06;;;;;;;16.10;3.88;;;9.00;99.90;;;;;;6187407;23;20040;-76
2023/12/21 06:25:31;;;;;;;19.00;5.13;;;9.00;99.90;;;;;;6189416;23;20021;-76
2023/12/21 06:27:57;;;;;;;20.95;4.53;;;9.10;99.90;;;;;;6189485;23;20035;-76
2023/12/21 06:30:23;;;;;;;18.30;4.57;;;9.10;99.90;;;;;;6189169;23;20045;-75
2023/12/21 06:32:51;;;;;;;24.83;4.82;;;9.10;99.90;;;;;;6189344;23;20048;-76
2023/12/21 06:35:17;;;;;;;13.95;4.40;;;9.10;99.90;;;;;;6189532;23;20396;-76
2023/12/21 06:37:43;;;;;;;15.82;4.35;;;9.10;99.90;;;;;;6189437;23;20441;-76
2023/12/21 06:40:09;;;;;;;18.02;5.68;;;9.10;99.90;;;;;;6189359;23;20051;-76
2023/12/21 06:42:35;;;;;;;18.45;4.55;;;9.10;99.90;;;;;;6189421;23;20487;-76
2023/12/21 06:45:04;;;;;;;18.25;4.93;;;9.10;99.90;;;;;;6189462;23;20017;-76
2023/12/21 06:47:30;;;;;;;17.30;4.22;;;9.10;99.90;;;;;;6189467;23;20021;-76
2023/12/21 06:49:55;;;;;;;18.20;4.50;;;9.00;99.90;;;;;;6189468;23;20021;-76
2023/12/21 06:52:21;;;;;;;18.88;4.25;;;9.00;99.90;;;;;;6189508;23;20024;-76
2023/12/21 06:54:47;;;;;;;21.05;4.05;;;9.10;99.90;;;;;;6189439;23;20021;-76
2023/12/21 06:57:15;;;;;;;16.98;4.28;;;9.00;99.90;;;;;;6215841;23;20448;-76
2023/12/21 06:59:41;;;;;;;16.35;4.32;;;9.00;99.90;;;;;;6189149;23;20013;-76
2023/12/21 07:02:06;;;;;;;12.48;3.42;;;9.00;99.90;;;;;;6216219;23;20070;-76
2023/12/21 07:04:32;;;;;;;15.48;3.85;;;9.00;99.90;;;;;;6189367;23;20012;-76
2023/12/21 07:07:00;;;;;;;16.80;2.83;;;9.00;99.90;;;;;;6189546;23;20024;-76
2023/12/21 07:09:26;;;;;;;15.55;2.88;;;9.00;99.90;;;;;;6189149;23;20048;-76
2023/12/21 07:11:52;;;;;;;13.68;2.90;;;9.10;99.90;;;;;;6188692;23;20116;-76
2023/12/21 07:14:18;;;;;;;19.55;3.80;;;9.10;99.90;;;;;;6189183;23;20008;-76
2023/12/21 07:16:43;;;;;;;13.60;3.13;;;9.00;99.90;;;;;;6189195;23;20099;-76
2023/12/21 07:19:09;;;;;;;13.65;3.22;;;9.10;99.90;;;;;;6189208;23;20470;-76
2023/12/21 07:21:38;;;;;;;18.15;3.22;;;9.10;99.90;;;;;;6189199;23;20046;-76
2023/12/21 07:24:05;;;;;;;23.73;4.88;;;9.10;99.90;;;;;;6216185;23;20013;-76
2023/12/21 07:26:31;;;;;;;22.95;4.43;;;9.10;99.90;;;;;;6191126;23;20103;-76
2023/12/21 07:28:57;;;;;;;20.35;3.50;;;9.10;99.90;;;;;;6191174;23;20051;-76
2023/12/21 07:31:22;;;;;;;26.00;4.43;;;9.10;99.90;;;;;;6191103;23;20020;-76
2023/12/21 07:33:48;;;;;;;21.25;3.70;;;9.10;99.90;;;;;;6191183;23;20017;-76
2023/12/21 07:36:14;;;;;;;29.42;5.40;;;9.10;99.90;;;;;;6191103;23;20012;-77
2023/12/21 07:38:43;;;;;;;27.55;4.43;;;9.10;99.90;;;;;;6190955;23;20025;-76
2023/12/21 07:41:10;;;;;;;32.85;6.47;;;9.10;99.90;;;;;;6190850;23;20339;-77
2023/12/21 07:43:37;;;;;;;26.83;4.07;;;9.10;99.90;;;;;;6217890;23;20023;-76
2023/12/21 07:46:07;;;;;;;27.38;4.90;;;9.10;99.90;;;;;;6190922;23;20013;-76
2023/12/21 07:48:35;;;;;;;28.45;5.40;;;9.10;99.90;;;;;;6190942;23;20021;-76
2023/12/21 07:51:01;;;;;;;30.15;5.10;;;9.10;99.90;;;;;;6191203;23;20020;-76
2023/12/21 07:53:26;;;;;;;24.08;4.72;;;9.10;99.90;;;;;;6190729;23;20371;-76
2023/12/21 07:55:52;;;;;;;27.45;4.60;;;9.10;99.90;;;;;;6190827;23;20475;-76
2023/12/21 07:58:18;;;;;;;29.65;5.00;;;9.20;99.90;;;;;;6190922;23;20016;-76
2023/12/21 08:00:43;;;;;;;27.83;4.80;;;9.10;99.90;;;;;;6190767;23;20092;-77
2023/12/21 08:03:12;;;;;;;27.48;4.57;;;9.10;99.90;;;;;;6190683;23;20024;-76
2023/12/21 08:05:37;;;;;;;28.83;4.82;;;9.20;99.90;;;;;;6190852;23;20087;-76
2023/12/21 08:08:04;;;;;;;25.52;4.65;;;9.20;99.90;;;;;;6190300;23;20176;-76
2023/12/21 08:10:33;;;;;;;27.80;4.82;;;9.20;99.90;;;;;;6217377;23;20012;-76
2023/12/21 08:12:58;;;;;;;27.02;3.72;;;9.20;99.90;;;;;;6189918;23;20028;-76
2023/12/21 08:15:26;;;;;;;26.95;5.43;;;9.30;99.90;;;;;;6190556;23;20017;-77
2023/12/21 08:17:55;;;;;;;18.77;4.40;;;9.30;99.90;;;;;;6190565;23;20016;-77
2023/12/21 08:20:24;;;;;;;24.77;4.47;;;9.30;99.90;;;;;;6190564;23;20024;-76
2023/12/21 08:22:54;;;;;;;27.77;4.72;;;9.30;99.90;;;;;;6190945;23;20027;-76
2023/12/21 08:25:20;;;;;;;36.55;5.82;;;9.40;99.90;;;;;;6190414;23;20031;-77
2023/12/21 08:27:45;;;;;;;34.22;6.22;;;9.40;99.90;;;;;;6190382;23;20013;-77
2023/12/21 08:30:14;;;;;;;36.30;5.88;;;9.40;99.90;;;;;;6190292;23;20012;-77
2023/12/21 08:32:39;;;;;;;29.23;5.13;;;9.40;99.90;;;;;;6189851;23;20036;-77
2023/12/21 08:35:05;;;;;;;25.10;4.65;;;9.40;99.90;;;;;;6189281;23;20013;-76
2023/12/21 08:37:31;;;;;;;28.75;5.40;;;9.40;99.90;;;;;;6189842;23;20091;-76
2023/12/21 08:39:57;;;;;;;26.40;5.82;;;9.40;99.90;;;;;;6190195;23;20437;-76
2023/12/21 08:42:23;;;;;;;24.02;5.43;;;9.40;99.90;;;;;;6189916;23;20024;-76
2023/12/21 08:44:49;;;;;;;24.60;4.80;;;9.40;99.90;;;;;;6217052;23;20008;-76
2023/12/21 08:47:14;;;;;;;29.30;4.65;;;9.40;99.90;;;;;;6189988;23;20393;-76
2023/12/21 08:49:40;;;;;;;25.52;5.13;;;9.40;99.90;;;;;;6190196;23;20021;-77
2023/12/21 08:52:06;;;;;;;32.88;6.03;;;9.50;99.90;;;;;;6190078;23;20404;-76
2023/12/21 08:54:31;;;;;;;19.52;4.32;;;9.40;99.90;;;;;;6216666;23;20017;-76
2023/12/21 08:56:57;;;;;;;22.92;4.63;;;9.50;99.90;;;;;;6189870;23;20017;-76
2023/12/21 08:59:26;;;;;;;34.60;4.97;;;9.50;99.90;;;;;;6190006;23;20024;-76
2023/12/21 09:01:53;;;;;;;23.27;4.88;;;9.50;99.90;;;;;;6189830;23;20020;-75
2023/12/21 09:04:20;;;;;;;32.53;4.53;;;9.50;99.90;;;;;;6189802;23;20016;-76
2023/12/21 09:06:45;;;;;;;23.60;4.55;;;9.60;99.90;;;;;;6216350;23;20579;-76
2023/12/21 09:09:13;;;;;;;26.27;4.32;;;9.60;99.90;;;;;;6189698;23;20040;-76
2023/12/21 09:11:39;;;;;;;23.92;5.13;;;9.60;99.90;;;;;;6189684;23;20413;-76
2023/12/21 09:14:07;;;;;;;34.10;5.28;;;9.60;99.90;;;;;;6188718;23;20099;-77
2023/12/21 09:16:32;;;;;;;26.10;4.75;;;9.70;99.90;;;;;;6188499;23;20021;-77
2023/12/21 09:18:58;;;;;;;32.47;5.78;;;9.70;99.90;;;;;;6189598;23;20027;-77
2023/12/21 09:21:24;;;;;;;23.73;5.10;;;9.70;99.90;;;;;;6189649;23;20024;-77
2023/12/21 09:23:52;;;;;;;30.08;5.53;;;9.70;99.90;;;;;;6189510;23;20021;-77
2023/12/21 09:26:17;;;;;;;26.00;5.45;;;9.70;99.90;;;;;;6189544;23;20021;-76
2023/12/21 09:28:43;;;;;;;29.17;4.32;;;9.80;99.90;;;;;;6189553;23;20099;-78
2023/12/21 09:31:15;;;;;;;36.30;5.65;;;9.80;99.90;;;;;;6189706;23;20017;-77
2023/12/21 09:33:40;;;;;;;28.30;4.15;;;9.80;99.90;;;;;;6188658;23;20144;-77
2023/12/21 09:36:09;;;;;;;25.98;4.43;;;9.80;99.90;;;;;;6188665;23;20043;-77
2023/12/21 09:38:35;;;;;;;22.38;4.65;;;9.90;99.90;;;;;;6216042;23;20039;-77
2023/12/21 09:41:00;;;;;;;21.30;3.88;;;9.90;99.90;;;;;;6189323;23;20405;-77
2023/12/21 09:43:27;;;;;;;22.02;3.85;;;9.90;99.90;;;;;;6189157;23;20029;-77
2023/12/21 09:45:55;;;;;;;21.42;4.03;;;10.00;99.90;;;;;;6189183;23;20040;-77
2023/12/21 09:48:22;;;;;;;21.75;3.85;;;10.00;99.90;;;;;;6189249;23;20027;-77
2023/12/21 09:50:49;;;;;;;23.98;4.65;;;10.00;99.90;;;;;;6188502;23;20381;-77
2023/12/21 09:53:16;;;;;;;27.73;5.20;;;10.00;99.90;;;;;;6188521;23;20412;-77
2023/12/21 09:55:43;;;;;;;27.02;5.68;;;10.00;99.90;;;;;;6188940;23;20012;-77
2023/12/21 09:58:12;;;;;;;26.48;6.13;;;10.00;99.90;;;;;;6189448;23;20023;-77
2023/12/21 10:00:39;;;;;;;30.25;5.18;;;10.00;99.90;;;;;;6188803;23;20444;-77
2023/12/21 10:03:05;;;;;;;25.50;4.82;;;10.00;99.90;;;;;;6189304;23;20027;-77
2023/12/21 10:05:34;;;;;;;32.00;5.03;;;10.00;99.90;;;;;;6188647;23;20475;-77
2023/12/21 10:08:01;;;;;;;31.08;5.15;;;10.00;99.90;;;;;;6189329;23;20071;-77
2023/12/21 10:10:37;;;;;;;26.80;4.97;;;10.10;99.90;;;;;;6188847;23;20056;-77
2023/12/21 10:13:03;;;;;;;28.25;5.10;;;10.10;99.90;;;;;;6188860;23;20071;-77
2023/12/21 10:15:32;;;;;;;25.13;4.20;;;10.20;99.90;;;;;;6189354;23;20016;-77
2023/12/21 10:17:58;;;;;;;37.30;6.28;;;10.20;99.90;;;;;;6189269;23;20056;-77
2023/12/21 10:20:24;;;;;;;29.83;6.10;;;10.30;99.90;;;;;;6188727;23;20028;-77
2023/12/21 10:22:52;;;;;;;34.40;4.53;;;10.30;99.90;;;;;;6188583;23;20024;-76
2023/12/21 10:25:21;;;;;;;28.23;4.15;;;10.20;99.90;;;;;;6188409;23;20106;-77
2023/12/21 10:27:57;;;;;;;23.08;5.03;;;10.20;99.90;;;;;;6189046;23;20024;-77
2023/12/21 10:30:24;;;;;;;22.77;5.07;;;10.30;99.90;;;;;;6188588;23;20016;-77
2023/12/21 10:32:56;;;;;;;36.63;5.15;;;10.30;99.90;;;;;;6188368;23;20444;-77
2023/12/21 10:35:25;;;;;;;23.42;4.85;;;10.30;99.90;;;;;;6215127;23;20462;-76
2023/12/21 10:37:51;;;;;;;34.72;6.57;;;10.30;99.90;;;;;;6189101;23;20067;-77
2023/12/21 10:40:17;;;;;;;21.38;3.55;;;10.30;99.90;;;;;;6188604;23;20055;-77
2023/12/21 10:42:46;;;;;;;25.75;5.68;;;10.40;99.90;;;;;;6188575;23;20016;-76
2023/12/21 10:45:16;;;;;;;25.42;4.22;;;10.30;99.90;;;;;;6215402;23;20548;-76
2023/12/21 10:47:53;;;;;;;29.67;4.18;;;10.40;99.90;;;;;;6215388;23;20027;-76
2023/12/21 10:50:25;;;;;;;29.23;5.90;;;10.40;99.90;;;;;;6188489;23;20432;-76
2023/12/21 10:52:52;;;;;;;25.75;4.93;;;10.40;99.90;;;;;;6188739;23;20016;-76
2023/12/21 10:55:18;;;;;;;29.83;5.25;;;10.30;99.90;;;;;;6215592;23;20021;-76
2023/12/21 10:57:45;;;;;;;28.60;3.95;;;10.40;99.90;;;;;;6188559;23;20016;-76
2023/12/21 11:00:15;;;;;;;17.17;3.38;;;10.40;99.90;;;;;;6190352;23;20012;-77
2023/12/21 11:02:46;;;;;;;21.13;3.60;;;10.50;99.90;;;;;;6217415;23;20017;-77
2023/12/21 11:05:19;;;;;;;31.45;4.05;;;10.50;99.90;;;;;;6191044;23;20044;-77
2023/12/21 11:07:48;;;;;;;32.85;4.68;;;10.50;99.90;;;;;;6191047;23;20043;-75
2023/12/21 11:10:14;;;;;;;26.88;4.25;;;10.50;99.90;;;;;;6190812;23;20028;-76
2023/12/21 11:12:39;;;;;;;31.30;5.05;;;10.50;99.90;;;;;;6190922;23;20388;-76
2023/12/21 11:15:06;;;;;;;31.98;5.15;;;10.50;99.90;;;;;;6191067;23;20452;-76
2023/12/21 11:17:33;;;;;;;29.10;5.00;;;10.50;99.90;;;;;;6190834;23;20012;-76
2023/12/21 11:20:00;;;;;;;27.67;4.95;;;10.50;99.90;;;;;;6190875;23;20051;-76
2023/12/21 11:22:27;;;;;;;30.98;5.47;;;10.50;99.90;;;;;;6190747;23;20021;-76
2023/12/21 11:25:07;;;;;;;22.85;4.35;;;10.50;99.90;;;;;;6190432;23;20020;-75
2023/12/21 11:27:38;;;;;;;25.73;4.20;;;10.50;99.90;;;;;;6190631;23;20021;-76
2023/12/21 11:30:14;;;;;;;26.23;4.72;;;10.60;99.90;;;;;;6190785;23;20012;-76
2023/12/21 11:32:46;;;;;;;16.45;3.42;;;10.60;99.90;;;;;;6190683;23;20099;-76
2023/12/21 11:35:23;;;;;;;24.73;4.68;;;10.60;99.90;;;;;;6190643;23;20063;-77
2023/12/21 11:37:50;;;;;;;22.80;4.03;;;10.60;99.90;;;;;;6191062;23;20025;-76
2023/12/21 11:40:17;;;;;;;23.90;4.38;;;10.60;99.90;;;;;;6190706;23;20020;-76
2023/12/21 11:42:48;;;;;;;32.30;4.25;;;10.60;99.90;;;;;;6217447;23;20091;-76
2023/12/21 11:45:30;;;;;;;32.03;4.93;;;10.60;99.90;;;;;;6190743;23;20364;-76
2023/12/21 11:48:04;;;;;;;30.13;4.57;;;10.70;99.90;;;;;;6189890;23;20516;-77
2023/12/21 11:50:33;;;;;;;25.40;6.03;;;10.70;99.90;;;;;;6217452;23;20012;-76
2023/12/21 11:53:10;;;;;;;17.30;3.40;;;10.70;99.90;;;;;;6189325;23;20013;-77
2023/12/21 11:55:41;;;;;;;26.98;5.03;;;10.80;99.90;;;;;;6190060;23;20440;-77
2023/12/21 11:58:23;;;;;;;36.45;5.10;;;10.80;99.90;;;;;;6190200;23;20397;-77
2023/12/21 12:00:56;;;;;;;24.23;4.32;;;10.70;99.90;;;;;;6190386;23;20020;-77
2023/12/21 12:03:23;;;;;;;28.40;5.90;;;10.70;99.90;;;;;;6190448;23;20420;-76
2023/12/21 12:05:53;;;;;;;32.72;6.57;;;10.80;99.90;;;;;;6190510;23;20044;-77
2023/12/21 12:08:25;;;;;;;30.48;4.50;;;10.70;99.90;;;;;;6190268;23;20092;-77
2023/12/21 12:10:55;;;;;;;35.40;6.07;;;10.70;99.90;;;;;;6188939;23;20099;-78
2023/12/21 12:13:21;;;;;;;36.72;6.53;;;10.70;99.90;;;;;;6190603;23;20024;-76
2023/12/21 12:15:48;;;;;;;21.05;4.88;;;10.70;99.90;;;;;;6216934;23;20322;-79
2023/12/21 12:18:18;;;;;;;38.67;6.90;;;10.80;99.90;;;;;;6190709;23;20013;-76
2023/12/21 12:20:45;;;;;;;30.98;6.60;;;10.80;99.90;;;;;;6190321;23;20340;-82
2023/12/21 12:23:12;;;;;;;37.08;7.43;;;10.80;99.90;;;;;;6189619;23;20021;-76
2023/12/21 12:25:38;;;;;;;11.93;2.08;;;10.70;99.90;;;;;;6190267;23;20016;-76
2023/12/21 12:28:04;;;;;;;18.88;3.00;;;10.30;99.90;;;;;;6190042;23;20051;-76
2023/12/21 12:30:31;;;;;;;25.95;3.80;;;10.00;99.90;;;;;;6190237;23;20376;-76
2023/12/21 12:33:02;;;;;;;20.67;4.15;;;9.60;99.90;;;;;;6190238;23;20475;-76
2023/12/21 12:35:30;;;;;;;16.17;3.20;;;9.20;99.90;;;;;;6190056;23;20341;-77
2023/12/21 12:37:56;;;;;;;19.67;3.88;;;9.10;99.90;;;;;;6190121;23;20491;-78
2023/12/21 12:40:23;;;;;;;24.55;4.68;;;8.90;99.90;;;;;;6189873;23;20214;-77
2023/12/21 12:42:49;;;;;;;21.17;4.47;;;8.70;99.90;;;;;;6189979;23;20060;-76
2023/12/21 12:45:16;;;;;;;36.88;5.05;;;8.50;99.90;;;;;;6190061;23;20073;-76